Terminal Aerodrome Forecast
Issued by NWS

Home | Current Version | Previous Version | Text Only | Print | Product List | Glossary On
Versions: 1 2 3 4 5 6 7 8 9 10 11 12 13 14 15 16 17 18 19 20
178
FTUS45 KFGZ 111133
TAFGCN
TAF
KGCN 111133Z 1112/1212 VRB05KT P6SM SCT025 BKN110 OVC200
      TEMPO 1112/1116 BKN025
     FM111900 VRB06KT P6SM SCT025 BKN200=

USA.gov is the U.S. government's official web portal to all federal, state and local government web resources and services.